createdAt,value
2022-11-02T00:01:44.546Z,45.10
2022-11-02T00:04:13.947Z,46.10
2022-11-02T00:06:45.023Z,45.60
2022-11-02T00:09:17.847Z,47.50
2022-11-02T00:11:57.299Z,47.60
2022-11-02T00:14:28.782Z,48.70
2022-11-02T00:16:58.248Z,44.80
2022-11-02T00:19:27.468Z,42.80
2022-11-02T00:22:00.397Z,44.60
2022-11-02T00:24:32.924Z,47.70
2022-11-02T00:27:02.437Z,42.20
2022-11-02T00:29:33.921Z,39.10
2022-11-02T00:32:03.275Z,37.00
2022-11-02T00:34:32.520Z,35.80
2022-11-02T00:37:01.595Z,38.90
2022-11-02T00:39:40.320Z,39.70
2022-11-02T00:42:09.639Z,38.80
2022-11-02T00:44:39.635Z,39.90
2022-11-02T00:47:12.263Z,37.90
2022-11-02T00:49:41.510Z,36.10
2022-11-02T00:52:10.444Z,40.10
2022-11-02T00:54:40.929Z,42.40
2022-11-02T01:02:09.859Z,41.50
2022-11-02T01:04:39.105Z,41.00
2022-11-02T01:07:08.332Z,43.20
2022-11-02T01:09:37.365Z,41.80
2022-11-02T01:12:07.134Z,45.00
2022-11-02T01:14:36.458Z,40.00
2022-11-02T01:17:05.525Z,41.70
2022-11-02T01:19:34.491Z,38.60
2022-11-02T01:22:03.683Z,41.10
2022-11-02T01:24:37.278Z,40.60
2022-11-02T01:27:23.954Z,43.40
2022-11-02T01:30:01.887Z,39.00
2022-11-02T01:32:31.417Z,43.80
2022-11-02T01:35:00.543Z,41.60
2022-11-02T01:37:29.580Z,43.60
2022-11-02T01:39:58.591Z,44.90
2022-11-02T01:42:29.365Z,43.20
2022-11-02T01:45:06.387Z,41.40
2022-11-02T01:47:41.451Z,44.40
2022-11-02T01:50:21.380Z,41.30
2022-11-02T01:52:50.146Z,44.00
2022-11-02T01:55:26.090Z,43.50
2022-11-02T01:58:08.649Z,45.70
2022-11-02T02:00:39.159Z,44.00
2022-11-02T02:03:12.211Z,44.20
2022-11-02T02:05:44.385Z,46.90
2022-11-02T02:08:18.812Z,47.40
2022-11-02T02:10:47.581Z,48.80
2022-11-02T02:13:18.225Z,48.80
2022-11-02T02:16:11.311Z,50.90
2022-11-02T02:18:54.934Z,56.50
2022-11-02T02:21:42.735Z,52.80
2022-11-02T02:24:37.039Z,55.70
2022-11-02T02:27:28.545Z,53.40
2022-11-02T02:30:12.199Z,53.20
2022-11-02T02:32:50.450Z,58.60
2022-11-02T02:35:45.842Z,58.40
2022-11-02T02:38:55.058Z,61.10
2022-11-02T02:41:26.769Z,63.00
2022-11-02T02:43:59.922Z,67.40
2022-11-02T02:46:40.472Z,63.50
2022-11-02T02:49:16.767Z,67.50
2022-11-02T02:51:47.653Z,69.60
2022-11-02T02:54:23.719Z,68.40
2022-11-02T02:57:11.741Z,62.50
2022-11-02T02:59:46.718Z,74.10
2022-11-02T03:02:26.174Z,69.50
2022-11-02T03:04:55.058Z,67.30
2022-11-02T03:07:35.033Z,73.30
2022-11-02T03:10:27.395Z,75.90
2022-11-02T03:13:12.061Z,77.50
2022-11-02T03:15:54.796Z,78.90
2022-11-02T03:18:28.681Z,73.90
2022-11-02T03:21:11.004Z,71.90
2022-11-02T03:23:47.683Z,72.90
2022-11-02T03:26:30.365Z,78.00
2022-11-02T03:29:26.299Z,71.80
2022-11-02T03:32:03.249Z,75.10
2022-11-02T03:34:48.772Z,80.90
2022-11-02T03:37:50.105Z,80.50
2022-11-02T03:40:25.558Z,83.10
2022-11-02T03:42:55.955Z,87.20
2022-11-02T03:45:37.842Z,87.00
2022-11-02T03:48:09.126Z,81.90
2022-11-02T03:50:43.007Z,91.10
2022-11-02T03:53:24.861Z,94.40
2022-11-02T03:55:59.075Z,94.40
2022-11-02T03:58:27.965Z,95.00
2022-11-02T04:01:04.951Z,95.10
2022-11-02T04:03:35.163Z,89.40
2022-11-02T04:06:04.323Z,98.80
2022-11-02T04:08:42.226Z,97.00
2022-11-02T04:11:49.771Z,91.70
2022-11-02T04:14:37.496Z,88.70
2022-11-02T04:19:59.999Z,103.30
2022-11-02T04:22:47.651Z,94.30
2022-11-02T04:25:19.101Z,98.00
2022-11-02T04:27:52.926Z,89.30
2022-11-02T04:30:23.602Z,102.90
2022-11-02T04:33:10.956Z,97.20
2022-11-02T04:35:39.668Z,100.60
2022-11-02T04:38:27.273Z,94.40
2022-11-02T04:41:16.066Z,94.50
2022-11-02T04:43:44.877Z,92.90
2022-11-02T04:46:13.488Z,91.20
2022-11-02T04:48:42.349Z,86.60
2022-11-02T04:51:11.461Z,94.50
2022-11-02T04:53:40.488Z,88.50
2022-11-02T04:56:09.883Z,86.00
2022-11-02T04:58:39.579Z,89.00
2022-11-02T05:01:16.178Z,84.30
2022-11-02T05:03:55.781Z,86.40
2022-11-02T05:06:32.621Z,84.60
2022-11-02T05:09:01.564Z,81.20
2022-11-02T05:11:30.249Z,82.30
2022-11-02T05:13:59.190Z,87.60
2022-11-02T05:16:30.335Z,81.40
2022-11-02T05:18:59.367Z,81.90
2022-11-02T05:21:29.904Z,86.50
2022-11-02T05:23:59.662Z,79.00
2022-11-02T05:26:30.056Z,91.40
2022-11-02T05:29:00.466Z,83.00
2022-11-02T05:31:48.064Z,84.70
2022-11-02T05:34:19.598Z,83.30
2022-11-02T05:36:49.992Z,85.20
2022-11-02T05:39:19.336Z,83.40
2022-11-02T05:41:53.647Z,79.90
2022-11-02T05:44:31.191Z,82.40
2022-11-02T05:47:03.812Z,91.20
2022-11-02T05:49:34.687Z,81.70
2022-11-02T05:52:04.926Z,86.20
2022-11-02T05:54:41.373Z,77.30
2022-11-02T05:57:10.638Z,83.50
2022-11-02T05:59:42.719Z,85.60
2022-11-02T06:02:25.599Z,88.00
2022-11-02T06:07:38.124Z,100.90
2022-11-02T06:10:08.696Z,94.50
2022-11-02T06:12:58.520Z,89.20
2022-11-02T06:15:35.370Z,90.60
2022-11-02T06:18:05.883Z,86.80
2022-11-02T06:20:35.670Z,89.00
2022-11-02T06:23:10.638Z,82.80
2022-11-02T06:26:04.087Z,84.50
2022-11-02T06:28:39.745Z,83.20
2022-11-02T06:31:18.364Z,87.30
2022-11-02T06:33:57.243Z,76.50
2022-11-02T06:36:39.575Z,73.10
2022-11-02T06:39:09.462Z,78.30
2022-11-02T06:41:43.268Z,73.90
2022-11-02T06:44:14.571Z,79.00
2022-11-02T06:46:46.976Z,84.50
2022-11-02T06:49:18.145Z,82.10
2022-11-02T06:51:47.924Z,70.60
2022-11-02T06:54:26.155Z,68.20
2022-11-02T06:56:55.927Z,65.70
2022-11-02T07:02:01.797Z,69.00
2022-11-02T07:04:45.984Z,64.20
2022-11-02T07:07:24.860Z,66.60
2022-11-02T07:09:59.983Z,61.00
2022-11-02T07:13:00.234Z,55.80
2022-11-02T07:15:33.616Z,59.30
2022-11-02T07:18:38.229Z,56.90
2022-11-02T07:21:15.061Z,49.70
2022-11-02T07:24:00.841Z,51.40
2022-11-02T07:27:03.796Z,47.60
2022-11-02T07:29:42.545Z,47.20
2022-11-02T07:32:53.414Z,53.10
2022-11-02T07:35:45.962Z,44.50
2022-11-02T07:38:31.012Z,46.90
2022-11-02T07:41:20.798Z,47.40
2022-11-02T07:43:59.509Z,52.70
2022-11-02T07:47:00.403Z,49.00
2022-11-02T07:49:48.721Z,49.80
2022-11-02T07:52:28.987Z,45.40
2022-11-02T07:55:12.313Z,40.10
2022-11-02T07:57:44.654Z,44.00
2022-11-02T08:00:20.407Z,44.70
2022-11-02T08:03:30.626Z,40.50
2022-11-02T08:06:13.823Z,41.80
2022-11-02T08:09:05.955Z,41.00
2022-11-02T08:12:44.905Z,44.30
2022-11-02T08:15:36.612Z,47.10
2022-11-02T08:18:18.958Z,46.20
2022-11-02T08:21:03.210Z,47.40
2022-11-02T08:23:40.203Z,44.00
2022-11-02T08:26:15.853Z,43.70
2022-11-02T08:29:21.736Z,45.20
2022-11-02T08:32:54.041Z,39.90
2022-11-02T08:35:38.705Z,38.60
2022-11-02T08:38:19.743Z,42.90
2022-11-02T08:41:27.319Z,36.40
2022-11-02T08:44:10.881Z,39.60
2022-11-02T08:47:04.203Z,39.80
2022-11-02T08:49:47.859Z,39.10
2022-11-02T08:52:28.517Z,35.40
2022-11-02T08:55:19.309Z,43.40
2022-11-02T08:58:05.239Z,40.00
2022-11-02T09:00:50.123Z,38.90
2022-11-02T09:03:27.683Z,39.80
2022-11-02T09:06:10.025Z,43.10
2022-11-02T09:08:47.002Z,40.70
2022-11-02T09:11:26.226Z,39.90
2022-11-02T09:14:12.078Z,39.90
2022-11-02T09:16:51.367Z,37.80
2022-11-02T09:19:35.317Z,38.30
2022-11-02T09:22:16.923Z,41.70
2022-11-02T09:25:05.768Z,35.50
2022-11-02T09:27:40.061Z,31.50
2022-11-02T09:30:22.230Z,39.00
2022-11-02T09:33:17.523Z,34.70
2022-11-02T09:36:08.862Z,36.00
2022-11-02T09:38:55.038Z,32.00
2022-11-02T09:41:49.346Z,29.90
2022-11-02T09:45:09.300Z,30.10
2022-11-02T09:48:17.187Z,30.10
2022-11-02T09:51:24.909Z,28.80
2022-11-02T09:54:13.348Z,32.10
2022-11-02T09:57:02.301Z,31.80
2022-11-02T09:59:44.026Z,29.90
2022-11-02T10:02:35.008Z,32.90
2022-11-02T10:05:16.196Z,29.40
2022-11-02T10:08:49.152Z,29.40
2022-11-02T10:11:25.159Z,33.90
2022-11-02T10:14:40.822Z,35.40
2022-11-02T10:17:34.461Z,32.60
2022-11-02T10:20:55.032Z,37.30
2022-11-02T10:24:14.460Z,33.30
2022-11-02T10:26:50.868Z,31.90
2022-11-02T10:29:40.064Z,40.70
2022-11-02T10:32:21.329Z,36.60
2022-11-02T10:35:51.427Z,36.40
2022-11-02T10:38:33.297Z,36.90
2022-11-02T10:41:31.329Z,34.40
2022-11-02T10:44:36.854Z,34.10
2022-11-02T10:47:55.399Z,36.00
2022-11-02T10:50:56.255Z,32.20
2022-11-02T10:53:50.693Z,31.70
2022-11-02T10:56:40.456Z,34.60
2022-11-02T10:59:32.823Z,32.30
2022-11-02T11:02:53.772Z,30.30
2022-11-02T11:05:33.366Z,36.80
2022-11-02T11:08:05.027Z,32.50
2022-11-02T11:10:44.982Z,28.40
2022-11-02T11:16:24.217Z,27.20
2022-11-02T11:22:45.419Z,22.50
2022-11-02T11:26:00.490Z,26.40
2022-11-02T11:29:23.788Z,24.50
2022-11-02T11:32:29.837Z,23.60
2022-11-02T11:35:40.177Z,19.80
2022-11-02T11:38:24.075Z,20.10
2022-11-02T11:41:12.816Z,21.30
2022-11-02T11:44:00.661Z,22.30
2022-11-02T11:47:02.137Z,21.70
2022-11-02T11:50:10.647Z,21.20
2022-11-02T11:53:27.921Z,21.50
2022-11-02T11:56:34.034Z,24.10
2022-11-02T11:59:41.679Z,21.30
2022-11-02T12:03:07.568Z,19.60
2022-11-02T12:06:38.118Z,21.50
